createdAt,value
2019-01-29T00:01:04.803Z,95.10
2019-01-29T00:04:09.908Z,95.00
2019-01-29T00:07:15.048Z,95.00
2019-01-29T00:10:20.156Z,95.00
2019-01-29T00:13:25.284Z,94.90
2019-01-29T00:16:30.351Z,95.00
2019-01-29T00:19:35.391Z,95.00
2019-01-29T00:22:40.532Z,95.10
2019-01-29T00:25:45.650Z,95.20
2019-01-29T00:28:50.721Z,95.00
2019-01-29T00:31:55.907Z,95.00
2019-01-29T00:35:00.970Z,94.90
2019-01-29T00:38:06.160Z,94.70
2019-01-29T00:41:11.291Z,94.70
2019-01-29T00:44:16.411Z,94.50
2019-01-29T00:47:21.543Z,94.20
2019-01-29T00:50:26.671Z,93.90
2019-01-29T00:53:31.639Z,93.70
2019-01-29T00:56:36.847Z,93.60
2019-01-29T00:59:41.960Z,93.50
2019-01-29T01:02:47.080Z,93.40
2019-01-29T01:05:52.171Z,93.30
2019-01-29T01:08:57.288Z,93.30
2019-01-29T01:12:02.404Z,93.30
2019-01-29T01:15:08.526Z,93.30
2019-01-29T01:18:13.656Z,93.20
2019-01-29T01:21:18.761Z,93.30
2019-01-29T01:24:23.795Z,93.40
2019-01-29T01:27:28.913Z,93.50
2019-01-29T01:30:33.951Z,93.50
2019-01-29T01:33:39.071Z,93.50
2019-01-29T01:36:44.247Z,93.50
2019-01-29T01:39:49.339Z,93.60
2019-01-29T01:42:54.458Z,93.60
2019-01-29T01:45:59.480Z,93.60
2019-01-29T01:49:04.620Z,93.70
2019-01-29T01:52:09.754Z,93.80
2019-01-29T01:55:16.904Z,93.90
2019-01-29T01:58:22.016Z,94.10
2019-01-29T02:01:27.118Z,94.20
2019-01-29T02:04:32.104Z,94.40
2019-01-29T02:07:37.230Z,94.60
2019-01-29T02:10:42.334Z,94.60
2019-01-29T02:13:47.452Z,94.60
2019-01-29T02:16:52.552Z,94.60
2019-01-29T02:19:57.607Z,94.70
2019-01-29T02:23:07.834Z,94.80
2019-01-29T02:26:09.464Z,94.90
2019-01-29T02:29:14.497Z,95.00
2019-01-29T02:32:19.563Z,95.00
2019-01-29T02:35:24.690Z,95.00
2019-01-29T02:38:29.881Z,94.80
2019-01-29T02:41:35.050Z,94.80
2019-01-29T02:44:40.162Z,94.80
2019-01-29T02:47:48.329Z,94.80
2019-01-29T02:50:53.448Z,94.80
2019-01-29T02:54:16.290Z,94.80
2019-01-29T02:57:39.239Z,94.80
2019-01-29T03:01:01.968Z,94.80
2019-01-29T03:07:48.435Z,94.70
2019-01-29T03:10:53.550Z,94.60
2019-01-29T03:13:58.664Z,94.50
2019-01-29T03:17:03.715Z,94.40
2019-01-29T03:20:09.652Z,94.30
2019-01-29T03:23:14.785Z,94.30
2019-01-29T03:26:19.899Z,94.20
2019-01-29T03:29:25.037Z,94.10
2019-01-29T03:32:30.219Z,94.00
2019-01-29T03:35:35.324Z,93.90
2019-01-29T03:38:40.439Z,94.00
2019-01-29T03:41:45.531Z,93.90
2019-01-29T03:44:50.643Z,93.90
2019-01-29T03:47:55.696Z,93.70
2019-01-29T03:51:00.862Z,93.70
2019-01-29T03:54:05.944Z,93.70
2019-01-29T03:57:11.309Z,93.70
2019-01-29T04:00:18.901Z,93.70
2019-01-29T04:03:24.884Z,93.70
2019-01-29T04:06:30.076Z,93.70
2019-01-29T04:09:35.199Z,93.60
2019-01-29T04:12:40.304Z,93.40
2019-01-29T04:15:45.406Z,93.40
2019-01-29T04:18:50.445Z,93.30
2019-01-29T04:21:55.580Z,93.20
2019-01-29T04:25:00.599Z,93.20
2019-01-29T04:28:05.720Z,93.00
2019-01-29T04:31:10.814Z,93.00
2019-01-29T04:34:15.851Z,93.00
2019-01-29T04:37:20.880Z,93.00
2019-01-29T04:40:26.029Z,93.00
2019-01-29T04:43:31.051Z,93.00
2019-01-29T04:46:36.007Z,93.00
2019-01-29T04:49:41.100Z,93.00
2019-01-29T04:52:46.059Z,92.90
2019-01-29T04:55:51.161Z,92.90
2019-01-29T04:58:56.192Z,93.00
2019-01-29T05:02:01.283Z,93.00
2019-01-29T05:05:07.750Z,92.90
2019-01-29T05:08:12.855Z,92.90
2019-01-29T05:11:17.898Z,93.00
2019-01-29T05:14:22.912Z,92.90
2019-01-29T05:17:27.945Z,93.00
2019-01-29T05:20:33.063Z,92.90
2019-01-29T05:23:38.101Z,92.90
2019-01-29T05:26:43.176Z,92.80
2019-01-29T05:29:48.229Z,92.80
2019-01-29T05:32:53.375Z,92.70
2019-01-29T05:35:58.554Z,92.80
2019-01-29T05:39:05.464Z,92.80
2019-01-29T05:42:10.398Z,92.90
2019-01-29T05:45:16.766Z,92.90
2019-01-29T05:48:21.794Z,92.90
2019-01-29T05:51:26.837Z,92.80
2019-01-29T05:54:31.945Z,92.90
2019-01-29T05:57:37.115Z,92.90
2019-01-29T06:00:42.307Z,92.80
2019-01-29T06:03:47.359Z,92.70
2019-01-29T06:06:52.486Z,92.70
2019-01-29T06:09:57.787Z,92.70
2019-01-29T06:13:02.928Z,92.80
2019-01-29T06:16:08.057Z,92.70
2019-01-29T06:19:13.008Z,92.70
2019-01-29T06:22:18.143Z,92.60
2019-01-29T06:25:23.180Z,92.60
2019-01-29T06:28:28.200Z,92.50
2019-01-29T06:31:33.156Z,92.50
2019-01-29T06:34:38.256Z,92.50
2019-01-29T06:37:43.452Z,92.60
2019-01-29T06:40:48.479Z,92.60
2019-01-29T06:43:53.488Z,92.60
2019-01-29T06:46:58.607Z,92.60
2019-01-29T06:50:04.028Z,92.50
2019-01-29T06:53:09.085Z,92.40
2019-01-29T06:56:14.156Z,92.40
2019-01-29T06:59:19.266Z,92.40
2019-01-29T07:02:24.354Z,92.40
2019-01-29T07:05:29.498Z,92.20
2019-01-29T07:08:34.502Z,92.30
2019-01-29T07:11:39.715Z,92.40
2019-01-29T07:14:44.652Z,92.40
2019-01-29T07:17:50.272Z,92.50
2019-01-29T07:20:55.395Z,92.50
2019-01-29T07:24:00.477Z,92.50
2019-01-29T07:27:05.593Z,92.50
2019-01-29T07:30:13.052Z,92.40
2019-01-29T07:33:18.089Z,92.40
2019-01-29T07:36:23.174Z,92.30
2019-01-29T07:39:28.204Z,92.60
2019-01-29T07:42:33.292Z,92.30
2019-01-29T07:45:38.390Z,92.20
2019-01-29T07:48:43.460Z,92.30
2019-01-29T07:51:48.554Z,92.30
2019-01-29T07:54:55.199Z,92.20
2019-01-29T07:58:00.151Z,92.10
2019-01-29T08:01:05.420Z,92.10
2019-01-29T08:04:10.515Z,92.10
2019-01-29T08:07:15.630Z,92.00
2019-01-29T08:10:20.757Z,91.90
2019-01-29T08:13:25.832Z,91.50
2019-01-29T08:16:30.952Z,91.50
2019-01-29T08:19:35.967Z,91.50
2019-01-29T08:22:41.078Z,91.60
2019-01-29T08:25:47.986Z,91.50
2019-01-29T08:28:52.832Z,91.30
2019-01-29T08:31:57.870Z,91.20
2019-01-29T08:35:02.980Z,91.10
2019-01-29T08:38:08.087Z,91.10
2019-01-29T08:41:13.123Z,91.10
2019-01-29T08:44:18.138Z,91.00
2019-01-29T08:47:23.247Z,91.00
2019-01-29T08:50:28.439Z,91.00
2019-01-29T08:53:33.404Z,91.00
2019-01-29T08:56:38.511Z,91.00
2019-01-29T08:59:43.532Z,91.00
2019-01-29T09:02:48.660Z,91.00
2019-01-29T09:05:53.751Z,91.00
2019-01-29T09:08:58.859Z,91.00
2019-01-29T09:12:04.064Z,91.00
2019-01-29T09:15:11.572Z,91.00
2019-01-29T09:18:16.604Z,91.10
2019-01-29T09:21:21.638Z,91.00
2019-01-29T09:24:26.677Z,91.20
2019-01-29T09:27:31.799Z,91.30
2019-01-29T09:30:36.884Z,91.40
2019-01-29T09:33:41.984Z,91.30
2019-01-29T09:36:47.096Z,91.10
2019-01-29T09:39:52.201Z,91.00
2019-01-29T09:42:57.319Z,91.10
2019-01-29T09:46:02.491Z,91.10
2019-01-29T09:49:07.598Z,91.00
2019-01-29T09:52:12.682Z,90.70
2019-01-29T09:55:18.917Z,90.90
2019-01-29T09:58:24.019Z,90.90
2019-01-29T10:01:29.198Z,90.60
2019-01-29T10:04:34.381Z,90.50
2019-01-29T10:07:39.336Z,90.50
2019-01-29T10:10:44.458Z,90.50
2019-01-29T10:13:49.552Z,90.60
2019-01-29T10:16:54.663Z,90.70
2019-01-29T10:20:02.917Z,90.30
2019-01-29T10:23:06.496Z,90.50
2019-01-29T10:26:11.535Z,90.70
2019-01-29T10:29:16.667Z,90.60
2019-01-29T10:32:21.704Z,89.80
2019-01-29T10:35:27.886Z,89.20
2019-01-29T10:38:32.975Z,87.50
2019-01-29T10:41:38.059Z,86.90
2019-01-29T10:44:43.156Z,85.00
2019-01-29T10:47:48.242Z,84.80
2019-01-29T10:50:53.470Z,84.50
2019-01-29T10:53:58.484Z,83.00
2019-01-29T10:57:03.579Z,81.90
2019-01-29T11:00:12.777Z,81.20
2019-01-29T11:03:17.891Z,80.30
2019-01-29T11:06:22.999Z,79.50
2019-01-29T11:09:28.024Z,79.00
2019-01-29T11:12:33.126Z,78.60
2019-01-29T11:15:40.139Z,78.10
2019-01-29T11:18:45.244Z,77.90
2019-01-29T11:21:50.342Z,78.20
2019-01-29T11:24:55.438Z,77.80
2019-01-29T11:28:01.737Z,77.70
2019-01-29T11:31:07.344Z,78.90
2019-01-29T11:34:12.446Z,78.00
2019-01-29T11:37:17.538Z,78.20
2019-01-29T11:40:24.592Z,78.30
2019-01-29T11:43:29.607Z,77.80
2019-01-29T11:46:34.727Z,76.80
2019-01-29T11:49:39.798Z,76.50
2019-01-29T11:52:45.249Z,76.40
2019-01-29T11:55:50.196Z,75.50
2019-01-29T11:58:55.299Z,75.70
2019-01-29T12:02:00.391Z,75.70
2019-01-29T12:05:05.795Z,75.50
2019-01-29T12:08:13.219Z,75.50
2019-01-29T12:11:18.322Z,75.20
2019-01-29T12:14:23.352Z,75.10
2019-01-29T12:17:29.878Z,75.40
2019-01-29T12:20:35.054Z,75.20
2019-01-29T12:23:40.171Z,75.90
2019-01-29T12:26:45.265Z,75.30
2019-01-29T12:29:50.305Z,75.50
2019-01-29T12:32:55.682Z,75.30
2019-01-29T12:36:00.720Z,74.60
2019-01-29T12:39:08.400Z,74.20
2019-01-29T12:42:13.505Z,74.50
2019-01-29T12:45:19.502Z,74.90
2019-01-29T12:48:24.601Z,73.80
2019-01-29T12:51:48.762Z,73.80
2019-01-29T12:54:53.922Z,73.50
2019-01-29T12:57:59.063Z,72.80
2019-01-29T13:01:04.748Z,72.30
2019-01-29T13:04:10.057Z,72.20
2019-01-29T13:07:15.137Z,72.40
2019-01-29T13:10:21.034Z,72.20
2019-01-29T13:13:26.319Z,71.50
2019-01-29T13:16:31.407Z,71.10
2019-01-29T13:19:36.492Z,71.40
2019-01-29T13:22:42.605Z,71.00
2019-01-29T13:25:47.731Z,71.00
2019-01-29T13:28:52.726Z,70.50
2019-01-29T13:31:57.759Z,70.10
2019-01-29T13:35:02.852Z,69.40
2019-01-29T13:38:08.588Z,69.80
2019-01-29T13:41:13.741Z,69.70
2019-01-29T13:44:18.814Z,69.80
2019-01-29T13:47:23.991Z,68.60
2019-01-29T13:50:39.231Z,67.80
2019-01-29T13:53:44.322Z,67.40
2019-01-29T13:56:50.307Z,66.90
2019-01-29T13:59:55.395Z,67.00
2019-01-29T14:03:00.858Z,67.20
2019-01-29T14:06:05.967Z,66.90
2019-01-29T14:09:11.042Z,67.00
2019-01-29T14:12:16.062Z,66.50
2019-01-29T14:15:52.160Z,66.10
2019-01-29T14:18:57.248Z,65.80
2019-01-29T14:22:03.866Z,66.10
2019-01-29T14:25:09.545Z,66.20
2019-01-29T14:28:14.651Z,66.30
2019-01-29T14:31:19.670Z,66.10
2019-01-29T14:34:24.783Z,66.00
2019-01-29T14:37:31.400Z,66.30
2019-01-29T14:40:36.588Z,66.70
2019-01-29T14:43:44.682Z,66.70
2019-01-29T14:46:49.864Z,67.00
2019-01-29T14:49:54.890Z,66.90
2019-01-29T14:52:59.983Z,67.00
2019-01-29T14:56:05.368Z,66.80
2019-01-29T14:59:10.584Z,66.60
2019-01-29T15:02:15.519Z,66.20
2019-01-29T15:05:20.608Z,66.20
2019-01-29T15:08:25.699Z,66.10
2019-01-29T15:11:30.740Z,66.00
2019-01-29T15:14:35.995Z,66.30
2019-01-29T15:17:53.374Z,66.10
2019-01-29T15:20:58.452Z,65.90
2019-01-29T15:24:03.547Z,66.10
2019-01-29T15:27:08.754Z,66.30
2019-01-29T15:30:22.515Z,66.50
2019-01-29T15:33:27.607Z,67.10
2019-01-29T15:36:32.694Z,67.70
2019-01-29T15:39:37.815Z,67.60
2019-01-29T15:42:42.839Z,67.50
2019-01-29T15:45:47.960Z,67.50
2019-01-29T15:48:52.971Z,68.50
2019-01-29T15:51:57.996Z,67.80
2019-01-29T15:55:03.080Z,68.00
2019-01-29T15:58:09.140Z,68.20
2019-01-29T16:01:14.236Z,68.50
2019-01-29T16:04:19.427Z,69.40
2019-01-29T16:07:24.431Z,68.70
2019-01-29T16:10:39.432Z,69.00
2019-01-29T16:13:38.447Z,69.00
2019-01-29T16:16:43.552Z,69.20
2019-01-29T16:19:48.667Z,69.40
2019-01-29T16:22:53.753Z,69.70
2019-01-29T16:25:58.834Z,69.90
2019-01-29T16:29:04.235Z,70.00
2019-01-29T16:32:09.327Z,70.00
2019-01-29T16:35:16.283Z,70.20
2019-01-29T16:38:21.556Z,70.40
2019-01-29T16:41:26.638Z,71.20
2019-01-29T16:44:31.610Z,70.50
2019-01-29T16:47:37.678Z,70.50
2019-01-29T16:50:42.719Z,70.70
2019-01-29T16:53:47.836Z,70.90
2019-01-29T16:56:52.922Z,71.20
2019-01-29T16:59:57.948Z,71.30
2019-01-29T17:03:03.099Z,71.30
2019-01-29T17:06:08.264Z,71.30
2019-01-29T17:09:13.715Z,71.50
2019-01-29T17:12:18.754Z,71.50
2019-01-29T17:15:28.068Z,71.50
2019-01-29T17:18:33.246Z,71.50
2019-01-29T17:21:38.335Z,71.80
2019-01-29T17:24:43.307Z,72.00
2019-01-29T17:27:48.431Z,71.90
2019-01-29T17:30:53.596Z,71.90
2019-01-29T17:33:58.781Z,72.10
2019-01-29T17:37:03.890Z,72.40
2019-01-29T17:40:10.220Z,72.50
2019-01-29T17:43:15.503Z,73.00
2019-01-29T17:46:20.652Z,73.80
2019-01-29T17:49:25.786Z,74.60
2019-01-29T17:52:30.890Z,75.50
2019-01-29T17:55:37.683Z,76.10
2019-01-29T17:58:42.714Z,76.60
2019-01-29T18:01:47.815Z,76.70
2019-01-29T18:04:52.852Z,76.60
2019-01-29T18:07:57.934Z,77.00
2019-01-29T18:11:02.975Z,77.20
2019-01-29T18:14:08.057Z,77.70
2019-01-29T18:17:13.163Z,78.20
2019-01-29T18:20:18.383Z,78.60
2019-01-29T18:23:23.479Z,79.00
2019-01-29T18:26:28.595Z,79.60
2019-01-29T18:29:33.698Z,80.00
2019-01-29T18:32:38.731Z,80.80
2019-01-29T18:35:43.842Z,81.30
2019-01-29T18:38:48.807Z,81.80
2019-01-29T18:41:53.830Z,82.50
2019-01-29T18:44:58.881Z,83.10
2019-01-29T18:48:03.992Z,83.70
2019-01-29T18:51:09.082Z,84.40
2019-01-29T18:54:14.111Z,85.10
2019-01-29T18:57:19.151Z,85.60
2019-01-29T19:00:24.825Z,86.00
2019-01-29T19:03:29.867Z,86.40
2019-01-29T19:06:34.974Z,86.70
2019-01-29T19:09:40.095Z,86.90
2019-01-29T19:12:45.291Z,87.10
2019-01-29T19:15:50.403Z,87.20
2019-01-29T19:18:55.447Z,87.20
2019-01-29T19:22:00.921Z,87.30
2019-01-29T19:25:08.029Z,87.20
2019-01-29T19:28:21.652Z,87.30
2019-01-29T19:31:21.058Z,87.30
2019-01-29T19:34:27.045Z,87.30
2019-01-29T19:37:33.063Z,87.40
2019-01-29T19:40:40.533Z,87.30
2019-01-29T19:43:46.758Z,87.40
2019-01-29T19:46:52.858Z,87.50
2019-01-29T19:49:58.944Z,87.60
2019-01-29T19:53:05.209Z,87.60
2019-01-29T19:56:11.412Z,87.80
2019-01-29T19:59:20.906Z,87.90
2019-01-29T20:02:27.227Z,88.00
2019-01-29T20:05:33.447Z,88.20
2019-01-29T20:08:39.570Z,88.40
2019-01-29T20:11:45.729Z,88.60
2019-01-29T20:14:51.829Z,88.60
2019-01-29T20:17:57.971Z,88.80
2019-01-29T20:21:04.102Z,88.90
2019-01-29T20:24:10.232Z,89.10
2019-01-29T20:27:16.480Z,89.20
2019-01-29T20:30:25.269Z,89.30
2019-01-29T20:33:31.859Z,89.50
2019-01-29T20:36:37.912Z,89.50
2019-01-29T20:39:44.030Z,89.60
2019-01-29T20:42:50.027Z,90.20
2019-01-29T20:45:56.132Z,90.00
2019-01-29T20:49:02.205Z,90.00
2019-01-29T20:52:08.413Z,90.00
2019-01-29T20:55:14.710Z,90.00
2019-01-29T20:58:20.829Z,90.00
2019-01-29T21:01:26.993Z,90.00
2019-01-29T21:04:33.067Z,90.00
2019-01-29T21:07:39.077Z,90.10
2019-01-29T21:10:45.164Z,90.10
2019-01-29T21:13:51.050Z,90.10
2019-01-29T21:16:56.759Z,90.10
2019-01-29T21:20:01.947Z,90.20
2019-01-29T21:23:07.071Z,90.30
2019-01-29T21:26:12.194Z,90.30
2019-01-29T21:29:17.303Z,90.30
2019-01-29T21:32:22.415Z,90.40
2019-01-29T21:35:27.521Z,90.40
2019-01-29T21:38:32.570Z,90.40
2019-01-29T21:41:37.705Z,90.50
2019-01-29T21:44:42.754Z,90.50
2019-01-29T21:47:48.717Z,90.50
2019-01-29T21:50:53.876Z,90.60
2019-01-29T21:53:58.992Z,90.60
2019-01-29T21:57:04.279Z,90.60
2019-01-29T22:00:16.161Z,90.70
2019-01-29T22:03:21.275Z,90.70
2019-01-29T22:06:26.306Z,90.70
2019-01-29T22:09:31.329Z,90.80
2019-01-29T22:12:36.456Z,90.80
2019-01-29T22:15:41.679Z,90.90
2019-01-29T22:18:46.792Z,90.90
2019-01-29T22:21:51.743Z,90.80
2019-01-29T22:24:56.730Z,90.90
2019-01-29T22:28:01.783Z,90.90
2019-01-29T22:31:06.880Z,91.00
2019-01-29T22:34:11.854Z,91.00
2019-01-29T22:37:16.954Z,91.00
2019-01-29T22:40:23.244Z,90.90
2019-01-29T22:43:28.351Z,90.90
2019-01-29T22:46:33.483Z,90.90
2019-01-29T22:49:38.515Z,90.90
2019-01-29T22:52:43.562Z,90.80
2019-01-29T22:55:48.773Z,90.80
2019-01-29T22:58:53.786Z,90.80
2019-01-29T23:01:58.976Z,90.80
2019-01-29T23:05:04.931Z,90.70
2019-01-29T23:08:09.975Z,90.70
2019-01-29T23:11:15.086Z,90.70
2019-01-29T23:14:20.219Z,90.60
2019-01-29T23:17:25.249Z,90.60
2019-01-29T23:20:30.375Z,90.60
2019-01-29T23:23:35.404Z,90.70
2019-01-29T23:26:40.530Z,90.70
2019-01-29T23:29:45.557Z,90.70
2019-01-29T23:32:50.675Z,90.70
2019-01-29T23:35:55.812Z,91.10
2019-01-29T23:39:00.830Z,90.70
2019-01-29T23:42:05.935Z,90.70
2019-01-29T23:45:11.744Z,90.80
2019-01-29T23:48:17.038Z,90.80
2019-01-29T23:51:22.171Z,90.80
2019-01-29T23:54:27.134Z,90.80
2019-01-29T23:57:32.097Z,90.80
